Western Grove, Arkansas
Current Conditions -  °F | °C
As of 5:53 PM on Thursday 27 Nov 2014 (Local Time) from KHRO Reporting Station
Clear Clear  
Wind Chill: 36°   Ceiling: Unl
Heat Index: 36°   Visibility: 10mi
Dew Point: 18°   Wind: 0mph
Humidity: 48%   Direction: NA
Pressure: 30.41"   Gusts: NA
Location:  36.1°N, 92.95°W
Report Text: KHRO 272353Z AUTO 00000KT 10SM CLR 02/M08 A3041 RMK AO2 SLP307 T00221078 10072 20022 56010
Loading
Personal Weather Stations






























Interactive Weather Map New forecast layout! Learn more

10-Day Weather Forecast

Advertisements
Track Severe Weather on mobile